createdAt,value
2019-03-16T00:00:10.303Z,13.20
2019-03-16T00:02:40.143Z,14.87
2019-03-16T00:05:10.229Z,8.48
2019-03-16T00:07:38.746Z,14.05
2019-03-16T00:10:08.273Z,17.40
2019-03-16T00:12:36.715Z,9.95
2019-03-16T00:15:07.280Z,11.73
2019-03-16T00:17:35.751Z,9.73
2019-03-16T00:20:13.102Z,14.43
2019-03-16T00:22:43.090Z,8.48
2019-03-16T00:25:11.751Z,15.85
2019-03-16T00:27:40.512Z,14.60
2019-03-16T00:30:16.167Z,7.90
2019-03-16T00:32:46.192Z,16.02
2019-03-16T00:35:16.043Z,14.37
2019-03-16T00:37:44.560Z,9.18
2019-03-16T00:40:14.340Z,11.93
2019-03-16T00:42:43.003Z,12.88
2019-03-16T00:45:12.602Z,10.82
2019-03-16T00:47:41.168Z,16.20
2019-03-16T00:50:11.362Z,14.20
2019-03-16T00:52:40.021Z,8.70
2019-03-16T00:55:12.112Z,11.12
2019-03-16T00:57:40.658Z,14.00
2019-03-16T01:00:17.519Z,14.38
2019-03-16T01:02:47.654Z,13.62
2019-03-16T01:05:16.511Z,14.40
2019-03-16T01:07:45.753Z,11.55
2019-03-16T01:10:14.364Z,12.15
2019-03-16T01:12:43.938Z,13.18
2019-03-16T01:15:15.238Z,14.85
2019-03-16T01:17:43.802Z,13.72
2019-03-16T01:20:14.929Z,13.43
2019-03-16T01:22:43.367Z,10.03
2019-03-16T01:25:14.230Z,10.90
2019-03-16T01:27:42.721Z,16.40
2019-03-16T01:30:27.106Z,12.20
2019-03-16T01:32:57.911Z,13.43
2019-03-16T01:35:26.457Z,15.23
2019-03-16T01:37:54.968Z,13.50
2019-03-16T01:40:23.455Z,11.07
2019-03-16T01:42:51.965Z,17.15
2019-03-16T01:45:20.493Z,20.50
2019-03-16T01:47:52.078Z,16.02
2019-03-16T01:50:22.694Z,14.55
2019-03-16T01:52:51.197Z,16.40
2019-03-16T01:55:21.246Z,13.30
2019-03-16T01:57:49.691Z,10.75
2019-03-16T02:00:18.281Z,13.57
2019-03-16T02:02:54.798Z,13.62
2019-03-16T02:05:17.259Z,8.25
2019-03-16T02:07:47.464Z,11.28
2019-03-16T02:10:16.080Z,12.97
2019-03-16T02:12:49.941Z,14.73
2019-03-16T02:15:20.467Z,18.50
2019-03-16T02:17:52.151Z,14.45
2019-03-16T02:20:25.724Z,9.78
2019-03-16T02:22:54.916Z,12.40
2019-03-16T02:25:23.406Z,11.00
2019-03-16T02:27:51.875Z,15.03
2019-03-16T02:30:20.342Z,13.50
2019-03-16T02:32:49.017Z,11.78
2019-03-16T02:35:17.522Z,14.47
2019-03-16T02:37:47.616Z,19.73
2019-03-16T02:40:18.623Z,14.40
2019-03-16T02:42:48.028Z,14.05
2019-03-16T02:45:16.530Z,15.55
2019-03-16T02:47:45.993Z,12.68
2019-03-16T02:50:15.541Z,13.73
2019-03-16T02:52:44.114Z,11.10
2019-03-16T02:55:14.471Z,16.80
2019-03-16T02:57:45.347Z,13.38
2019-03-16T03:00:18.483Z,16.02
2019-03-16T03:02:46.954Z,13.70
2019-03-16T03:05:15.419Z,12.20
2019-03-16T03:07:44.107Z,15.10
2019-03-16T03:10:17.418Z,13.15
2019-03-16T03:12:45.934Z,13.80
2019-03-16T03:15:23.750Z,10.20
2019-03-16T03:17:54.607Z,15.23
2019-03-16T03:20:23.121Z,11.20
2019-03-16T03:22:51.578Z,13.10
2019-03-16T03:25:20.724Z,19.90
2019-03-16T03:27:49.258Z,12.25
2019-03-16T03:30:17.784Z,9.90
2019-03-16T03:32:47.908Z,11.53
2019-03-16T03:35:17.100Z,15.18
2019-03-16T03:37:48.348Z,14.93
2019-03-16T03:40:18.363Z,12.85
2019-03-16T03:42:46.865Z,8.78
2019-03-16T03:45:15.417Z,19.40
2019-03-16T03:47:44.184Z,13.18
2019-03-16T03:50:15.682Z,10.50
2019-03-16T03:52:44.147Z,14.63
2019-03-16T03:55:13.955Z,14.28
2019-03-16T03:57:43.755Z,13.90
2019-03-16T04:00:17.428Z,14.60
2019-03-16T04:02:49.499Z,10.43
2019-03-16T04:05:18.139Z,13.70
2019-03-16T04:07:46.792Z,10.05
2019-03-16T04:10:15.422Z,13.45
2019-03-16T04:12:43.998Z,12.15
2019-03-16T04:15:13.903Z,14.13
2019-03-16T04:17:42.397Z,18.90
2019-03-16T04:20:13.124Z,14.80
2019-03-16T04:22:42.402Z,22.45
2019-03-16T04:25:11.008Z,14.23
2019-03-16T04:27:43.568Z,22.70
2019-03-16T04:30:14.614Z,15.80
2019-03-16T04:32:44.704Z,16.75
2019-03-16T04:35:15.489Z,14.43
2019-03-16T04:37:43.975Z,14.35
2019-03-16T04:40:12.579Z,12.87
2019-03-16T04:42:41.138Z,14.45
2019-03-16T04:45:13.683Z,16.66
2019-03-16T04:47:42.280Z,15.07
2019-03-16T04:50:12.389Z,16.07
2019-03-16T04:52:40.957Z,13.58
2019-03-16T04:55:10.177Z,16.02
2019-03-16T04:57:38.627Z,13.98
2019-03-16T05:00:12.028Z,14.07
2019-03-16T05:02:40.483Z,18.15
2019-03-16T05:05:08.967Z,13.65
2019-03-16T05:07:37.454Z,20.55
2019-03-16T05:10:13.860Z,13.50
2019-03-16T05:12:42.324Z,16.27
2019-03-16T05:15:11.023Z,17.27
2019-03-16T05:17:41.902Z,22.80
2019-03-16T05:20:12.036Z,24.00
2019-03-16T05:22:41.581Z,20.90
2019-03-16T05:25:11.482Z,16.77
2019-03-16T05:27:42.101Z,32.25
2019-03-16T05:30:14.727Z,18.12
2019-03-16T05:32:43.251Z,19.87
2019-03-16T05:35:12.146Z,19.77
2019-03-16T05:37:40.966Z,26.77
2019-03-16T05:40:11.038Z,29.12
2019-03-16T05:42:39.581Z,27.65
2019-03-16T05:45:10.851Z,28.17
2019-03-16T05:47:39.311Z,26.00
2019-03-16T05:50:10.593Z,21.70
2019-03-16T05:52:39.166Z,22.85
2019-03-16T05:55:07.808Z,25.00
2019-03-16T05:57:36.259Z,18.87
2019-03-16T06:00:11.221Z,25.72
2019-03-16T06:02:41.389Z,25.27
2019-03-16T06:05:11.355Z,22.77
2019-03-16T06:07:40.305Z,25.32
2019-03-16T06:10:10.238Z,27.27
2019-03-16T06:12:40.081Z,21.33
2019-03-16T06:15:14.195Z,20.52
2019-03-16T06:17:45.492Z,19.90
2019-03-16T06:20:15.115Z,17.70
2019-03-16T06:22:43.603Z,19.55
2019-03-16T06:25:13.634Z,17.87
2019-03-16T06:27:42.219Z,19.87
2019-03-16T06:30:15.744Z,21.10
2019-03-16T06:32:45.048Z,17.52
2019-03-16T06:35:24.002Z,12.07
2019-03-16T06:37:44.218Z,19.17
2019-03-16T06:40:13.006Z,18.03
2019-03-16T06:42:44.174Z,15.38
2019-03-16T06:45:14.337Z,15.93
2019-03-16T06:47:43.995Z,14.03
2019-03-16T06:50:15.067Z,15.32
2019-03-16T06:52:43.572Z,14.25
2019-03-16T06:55:14.040Z,14.30
2019-03-16T06:57:43.254Z,13.98
2019-03-16T07:00:15.605Z,15.83
2019-03-16T07:02:44.121Z,13.23
2019-03-16T07:05:14.234Z,19.37
2019-03-16T07:07:42.934Z,17.73
2019-03-16T07:10:15.938Z,19.35
2019-03-16T07:12:45.947Z,19.60
2019-03-16T07:15:17.963Z,20.35
2019-03-16T07:17:46.428Z,17.32
2019-03-16T07:20:15.814Z,21.20
2019-03-16T07:22:44.364Z,21.90
2019-03-16T07:25:12.912Z,21.12
2019-03-16T07:27:41.364Z,17.92
2019-03-16T07:30:12.477Z,20.62
2019-03-16T07:32:41.069Z,22.52
2019-03-16T07:35:12.580Z,18.56
2019-03-16T07:37:45.220Z,21.35
2019-03-16T07:40:15.265Z,27.27
2019-03-16T07:42:43.734Z,20.40
2019-03-16T07:45:17.326Z,19.95
2019-03-16T07:47:48.861Z,24.77
2019-03-16T07:50:20.361Z,19.32
2019-03-16T07:52:59.278Z,20.82
2019-03-16T07:55:31.079Z,16.50
2019-03-16T07:57:59.544Z,22.58
2019-03-16T08:00:29.606Z,22.40
2019-03-16T08:02:58.074Z,19.87
2019-03-16T08:05:26.647Z,27.62
2019-03-16T08:07:55.105Z,27.65
2019-03-16T08:10:25.260Z,22.82
2019-03-16T08:12:53.831Z,28.42
2019-03-16T08:15:22.355Z,23.80
2019-03-16T08:17:50.994Z,22.93
2019-03-16T08:20:19.559Z,18.92
2019-03-16T08:22:48.055Z,15.28
2019-03-16T08:25:17.907Z,21.52
2019-03-16T08:27:53.946Z,24.50
2019-03-16T08:30:18.322Z,17.67
2019-03-16T08:32:46.784Z,18.30
2019-03-16T08:35:17.860Z,20.57
2019-03-16T08:37:46.684Z,18.05
2019-03-16T08:40:15.675Z,16.10
2019-03-16T08:42:46.239Z,13.70
2019-03-16T08:45:18.708Z,15.08
2019-03-16T08:47:48.979Z,17.37
2019-03-16T08:50:19.051Z,19.70
2019-03-16T08:52:53.756Z,12.37
2019-03-16T08:55:24.458Z,12.28
2019-03-16T08:58:05.308Z,18.32
2019-03-16T09:00:26.598Z,25.20
2019-03-16T09:02:56.984Z,13.90
2019-03-16T09:05:27.607Z,16.27
2019-03-16T09:07:56.407Z,17.95
2019-03-16T09:10:28.307Z,15.08
2019-03-16T09:12:58.689Z,23.83
2019-03-16T09:15:32.609Z,21.80
2019-03-16T09:18:04.625Z,18.98
2019-03-16T09:20:38.646Z,25.35
2019-03-16T09:23:08.276Z,35.48
2019-03-16T09:25:41.850Z,36.83
2019-03-16T09:28:18.940Z,28.38
2019-03-16T09:30:49.486Z,22.37
2019-03-16T09:33:18.673Z,18.87
2019-03-16T09:35:47.400Z,24.02
2019-03-16T09:38:17.458Z,29.05
2019-03-16T09:40:45.921Z,28.10
2019-03-16T09:43:15.805Z,28.02
2019-03-16T09:45:46.305Z,33.35
2019-03-16T09:48:17.060Z,26.48
2019-03-16T09:50:45.619Z,27.52
2019-03-16T09:53:17.261Z,29.70
2019-03-16T09:55:46.091Z,18.77
2019-03-16T09:58:14.595Z,20.03
2019-03-16T10:00:43.119Z,26.10
2019-03-16T10:03:12.245Z,19.92
2019-03-16T10:05:40.837Z,23.35
2019-03-16T10:08:09.396Z,19.77
2019-03-16T10:10:38.824Z,19.30
2019-03-16T10:13:07.284Z,17.90
2019-03-16T10:15:37.116Z,17.97
2019-03-16T10:18:08.847Z,24.98
2019-03-16T10:20:37.299Z,20.10
2019-03-16T10:23:06.236Z,14.30
2019-03-16T10:25:35.296Z,15.20
2019-03-16T10:28:03.741Z,18.20
2019-03-16T10:30:32.216Z,23.32
2019-03-16T10:33:00.755Z,14.40
2019-03-16T10:35:31.214Z,18.37
2019-03-16T10:38:01.016Z,14.03
2019-03-16T10:40:29.495Z,14.47
2019-03-16T10:42:57.951Z,15.83
2019-03-16T10:45:29.211Z,11.38
2019-03-16T10:48:00.447Z,15.55
2019-03-16T10:50:28.972Z,13.85
2019-03-16T10:53:01.566Z,15.05
2019-03-16T10:55:33.531Z,15.93
2019-03-16T10:58:02.131Z,15.28
2019-03-16T11:00:30.652Z,14.10
2019-03-16T11:03:02.998Z,17.20
2019-03-16T11:05:32.980Z,8.15
2019-03-16T11:08:03.738Z,14.33
2019-03-16T11:10:32.231Z,9.18
2019-03-16T11:13:02.080Z,11.55
2019-03-16T11:15:31.176Z,9.98
2019-03-16T11:17:59.797Z,15.20
2019-03-16T11:20:28.323Z,14.50
2019-03-16T11:22:56.811Z,14.18
2019-03-16T11:25:25.490Z,14.93
2019-03-16T11:27:54.005Z,10.75
2019-03-16T11:30:29.813Z,7.43
2019-03-16T11:33:00.423Z,6.73
2019-03-16T11:35:30.423Z,9.95
2019-03-16T11:37:59.109Z,8.13
2019-03-16T11:40:33.532Z,7.37
2019-03-16T11:43:01.985Z,7.40
2019-03-16T11:45:30.602Z,10.25
2019-03-16T11:48:00.654Z,10.43
2019-03-16T11:50:30.704Z,7.15
2019-03-16T11:52:59.170Z,6.67
2019-03-16T11:55:30.960Z,6.92
2019-03-16T11:57:59.418Z,7.67
2019-03-16T12:00:28.297Z,7.72
2019-03-16T12:02:56.840Z,8.10
2019-03-16T12:05:26.025Z,6.80
2019-03-16T12:07:57.354Z,4.45
2019-03-16T12:10:25.892Z,7.83
2019-03-16T12:12:54.772Z,6.67
2019-03-16T12:15:24.097Z,7.07
2019-03-16T12:17:52.570Z,6.20
2019-03-16T12:20:21.112Z,8.73
2019-03-16T12:22:49.645Z,7.47
2019-03-16T12:25:18.248Z,5.63
2019-03-16T12:27:46.984Z,7.42
2019-03-16T12:30:18.179Z,6.35
2019-03-16T12:32:46.511Z,8.60
2019-03-16T12:35:15.039Z,5.78
2019-03-16T12:37:45.583Z,4.33
2019-03-16T12:40:18.324Z,5.45
2019-03-16T12:42:49.103Z,6.27
2019-03-16T12:45:21.183Z,5.03
2019-03-16T12:47:49.754Z,3.05
2019-03-16T12:50:18.374Z,5.42
2019-03-16T12:52:46.892Z,5.47
2019-03-16T12:55:16.963Z,4.67
2019-03-16T12:57:48.103Z,8.10
2019-03-16T13:00:20.661Z,4.33
2019-03-16T13:02:49.860Z,4.90
2019-03-16T13:05:21.670Z,6.85
2019-03-16T13:07:51.151Z,5.70
2019-03-16T13:10:24.407Z,4.85
2019-03-16T13:15:23.753Z,11.83
2019-03-16T13:17:52.681Z,4.50
2019-03-16T13:20:23.512Z,9.67
2019-03-16T13:23:11.881Z,7.60
2019-03-16T13:25:45.419Z,3.85
2019-03-16T13:28:14.697Z,5.95
2019-03-16T13:30:45.045Z,6.70
2019-03-16T13:33:16.679Z,4.08
2019-03-16T13:35:45.133Z,5.17
2019-03-16T13:38:15.659Z,4.40
2019-03-16T13:40:44.233Z,3.47
2019-03-16T13:43:14.435Z,3.55
2019-03-16T13:45:44.435Z,3.60
2019-03-16T13:48:14.140Z,10.38
2019-03-16T13:50:42.613Z,6.72
2019-03-16T13:53:15.315Z,6.92
2019-03-16T13:55:47.227Z,5.20
2019-03-16T13:58:17.313Z,8.30
2019-03-16T14:00:50.661Z,7.90
2019-03-16T14:05:47.390Z,5.65
2019-03-16T14:08:17.426Z,5.92
2019-03-16T14:10:45.898Z,6.05
2019-03-16T14:13:16.420Z,7.50
2019-03-16T14:15:46.498Z,7.20
2019-03-16T14:18:16.480Z,6.50
2019-03-16T14:20:44.961Z,8.58
2019-03-16T14:23:15.812Z,9.43
2019-03-16T14:25:47.593Z,6.17
2019-03-16T14:28:17.560Z,6.33
2019-03-16T14:30:47.623Z,9.10
2019-03-16T14:33:16.154Z,6.60
2019-03-16T14:35:48.414Z,11.18
2019-03-16T14:38:16.927Z,8.13
2019-03-16T14:40:45.455Z,9.48
2019-03-16T14:43:13.925Z,6.75
2019-03-16T14:45:43.927Z,10.65
2019-03-16T14:48:14.160Z,7.15
2019-03-16T14:50:42.708Z,7.15
2019-03-16T14:53:11.522Z,15.35
2019-03-16T14:55:44.451Z,4.10
2019-03-16T14:58:14.935Z,3.87
2019-03-16T15:00:48.849Z,7.53
2019-03-16T15:03:17.303Z,8.60
2019-03-16T15:05:50.788Z,14.33
2019-03-16T15:08:19.928Z,7.27
2019-03-16T15:10:50.944Z,9.08
2019-03-16T15:13:19.407Z,9.60
2019-03-16T15:15:48.012Z,4.55
2019-03-16T15:18:18.312Z,6.63
2019-03-16T15:20:47.066Z,6.65
2019-03-16T15:23:15.540Z,7.58
2019-03-16T15:25:43.995Z,7.35
2019-03-16T15:28:12.462Z,8.20
2019-03-16T15:30:50.183Z,4.22
2019-03-16T15:33:11.138Z,7.30
2019-03-16T15:35:40.286Z,7.87
2019-03-16T15:38:08.748Z,8.60
2019-03-16T15:40:38.427Z,7.17
2019-03-16T15:43:07.799Z,4.85
2019-03-16T15:45:46.814Z,7.30
2019-03-16T15:48:14.674Z,5.75
2019-03-16T15:50:45.355Z,5.40
2019-03-16T15:53:16.767Z,13.48
2019-03-16T15:55:45.205Z,8.55
2019-03-16T15:58:14.575Z,8.70
2019-03-16T16:00:43.036Z,10.43
2019-03-16T16:03:11.576Z,6.03
2019-03-16T16:05:45.872Z,9.00
2019-03-16T16:08:11.999Z,10.70
2019-03-16T16:10:43.377Z,7.95
2019-03-16T16:13:18.135Z,6.93
2019-03-16T16:15:51.506Z,8.18
2019-03-16T16:18:22.885Z,11.87
2019-03-16T16:20:51.363Z,18.48
2019-03-16T16:23:20.902Z,12.07
2019-03-16T16:25:49.481Z,7.37
2019-03-16T16:28:17.947Z,6.47
2019-03-16T16:30:48.568Z,11.50
2019-03-16T16:33:20.954Z,12.13
2019-03-16T16:35:49.446Z,12.35
2019-03-16T16:38:17.976Z,10.53
2019-03-16T16:40:46.532Z,14.07
2019-03-16T16:43:15.000Z,9.23
2019-03-16T16:45:46.648Z,6.45
2019-03-16T16:48:19.201Z,13.75
2019-03-16T16:50:50.417Z,8.53
2019-03-16T16:53:18.924Z,10.17
2019-03-16T16:55:49.162Z,8.95
2019-03-16T16:58:17.638Z,9.47
2019-03-16T17:00:46.763Z,6.97
2019-03-16T17:03:15.335Z,9.08
2019-03-16T17:05:43.884Z,12.05
2019-03-16T17:08:12.427Z,10.80
2019-03-16T17:10:41.088Z,18.05
2019-03-16T17:13:12.157Z,10.58
2019-03-16T17:15:43.742Z,12.98
2019-03-16T17:18:16.075Z,17.52
2019-03-16T17:20:44.523Z,11.18
2019-03-16T17:23:12.982Z,13.38
2019-03-16T17:25:41.511Z,6.62
2019-03-16T17:28:09.988Z,7.50
2019-03-16T17:30:40.160Z,10.93
2019-03-16T17:33:08.743Z,6.87
2019-03-16T17:35:37.368Z,12.00
2019-03-16T17:38:05.893Z,15.40
2019-03-16T17:40:34.440Z,10.75
2019-03-16T17:43:03.000Z,11.03
2019-03-16T17:45:33.879Z,11.05
2019-03-16T17:48:03.586Z,12.37
2019-03-16T17:50:35.985Z,9.73
2019-03-16T17:53:04.968Z,15.08
2019-03-16T17:55:33.619Z,10.95
2019-03-16T17:58:03.417Z,10.38
2019-03-16T18:00:31.923Z,11.70
2019-03-16T18:03:01.368Z,9.45
2019-03-16T18:05:30.059Z,5.90
2019-03-16T18:07:59.597Z,15.60
2019-03-16T18:10:29.548Z,10.28
2019-03-16T18:12:58.485Z,9.40
2019-03-16T18:15:27.104Z,6.55
2019-03-16T18:17:57.104Z,10.55
2019-03-16T18:20:25.685Z,10.93
2019-03-16T18:22:58.788Z,13.18
2019-03-16T18:25:27.352Z,13.27
2019-03-16T18:27:55.986Z,12.20
2019-03-16T18:30:25.488Z,13.90
2019-03-16T18:32:53.952Z,12.20
2019-03-16T18:35:22.471Z,7.37
2019-03-16T18:37:50.953Z,15.60
2019-03-16T18:40:19.419Z,9.63
2019-03-16T18:42:47.988Z,14.33
2019-03-16T18:45:25.390Z,9.70
2019-03-16T18:47:53.911Z,12.35
2019-03-16T18:50:23.786Z,9.10
2019-03-16T18:52:52.330Z,14.15
2019-03-16T18:55:20.794Z,15.47
2019-03-16T18:57:50.702Z,12.93
2019-03-16T19:00:19.302Z,12.75
2019-03-16T19:02:50.807Z,14.38
2019-03-16T19:05:19.607Z,12.78
2019-03-16T19:07:48.113Z,13.45
2019-03-16T19:10:17.753Z,10.07
2019-03-16T19:12:46.355Z,11.18
2019-03-16T19:15:19.138Z,14.83
2019-03-16T19:17:58.551Z,14.87
2019-03-16T19:20:19.196Z,10.18
2019-03-16T19:22:47.755Z,13.72
2019-03-16T19:25:21.115Z,11.75
2019-03-16T19:27:49.694Z,14.13
2019-03-16T19:30:18.517Z,10.30
2019-03-16T19:32:47.139Z,18.52
2019-03-16T19:35:15.924Z,14.28
2019-03-16T19:37:45.307Z,14.18
2019-03-16T19:40:16.695Z,5.57
2019-03-16T19:42:46.703Z,13.45
2019-03-16T19:45:15.565Z,10.67
2019-03-16T19:47:44.025Z,11.40
2019-03-16T19:50:16.544Z,11.00
2019-03-16T19:52:44.991Z,11.63
2019-03-16T19:55:15.131Z,15.07
2019-03-16T19:57:43.713Z,12.13
2019-03-16T20:00:17.198Z,14.13
2019-03-16T20:02:51.005Z,14.90
2019-03-16T20:05:16.065Z,11.28
2019-03-16T20:07:45.659Z,10.93
2019-03-16T20:10:19.359Z,11.38
2019-03-16T20:12:48.010Z,12.58
2019-03-16T20:15:17.100Z,12.17
2019-03-16T20:17:45.623Z,17.65
2019-03-16T20:20:15.244Z,11.97
2019-03-16T20:22:43.758Z,15.28
2019-03-16T20:25:13.059Z,10.77
2019-03-16T20:27:41.583Z,13.50
2019-03-16T20:30:15.187Z,12.78
2019-03-16T20:32:50.291Z,16.07
2019-03-16T20:35:15.287Z,15.43
2019-03-16T20:37:47.260Z,15.90
2019-03-16T20:40:16.677Z,10.25
2019-03-16T20:42:45.245Z,10.70
2019-03-16T20:45:16.861Z,14.13
2019-03-16T20:47:45.591Z,10.65
2019-03-16T20:50:18.554Z,12.90
2019-03-16T20:52:47.247Z,15.87
2019-03-16T20:55:15.867Z,16.48
2019-03-16T20:57:44.354Z,11.88
2019-03-16T21:00:15.971Z,17.40
2019-03-16T21:02:46.532Z,19.50
2019-03-16T21:05:16.796Z,15.27
2019-03-16T21:07:45.397Z,13.68
2019-03-16T21:10:14.291Z,15.60
2019-03-16T21:12:42.834Z,8.75
2019-03-16T21:15:12.984Z,17.50
2019-03-16T21:17:44.972Z,11.22
2019-03-16T21:20:16.519Z,9.88
2019-03-16T21:22:45.082Z,18.60
2019-03-16T21:25:17.375Z,17.02
2019-03-16T21:27:45.907Z,16.20
2019-03-16T21:30:17.231Z,11.43
2019-03-16T21:32:45.839Z,16.30
2019-03-16T21:35:14.438Z,15.80
2019-03-16T21:37:43.532Z,11.90
2019-03-16T21:40:18.598Z,13.83
2019-03-16T21:42:47.127Z,14.83
2019-03-16T21:45:24.208Z,19.45
2019-03-16T21:47:59.922Z,12.40
2019-03-16T21:50:24.540Z,13.98
2019-03-16T21:52:53.045Z,14.58
2019-03-16T21:55:21.511Z,10.08
2019-03-16T21:57:51.099Z,13.20
2019-03-16T22:00:19.757Z,13.93
2019-03-16T22:02:48.277Z,11.15
2019-03-16T22:05:18.266Z,15.00
2019-03-16T22:07:46.753Z,12.70
2019-03-16T22:10:16.662Z,9.35
2019-03-16T22:12:45.174Z,12.78
2019-03-16T22:15:16.750Z,9.65
2019-03-16T22:17:45.547Z,13.18
2019-03-16T22:20:18.222Z,15.72
2019-03-16T22:22:46.766Z,11.00
2019-03-16T22:25:15.356Z,17.20
2019-03-16T22:27:44.587Z,14.58
2019-03-16T22:30:19.661Z,13.97
2019-03-16T22:32:49.314Z,15.08
2019-03-16T22:35:17.892Z,17.75
2019-03-16T22:37:47.613Z,12.60
2019-03-16T22:40:17.431Z,7.80
2019-03-16T22:42:45.903Z,11.35
2019-03-16T22:45:15.227Z,10.20
2019-03-16T22:47:43.680Z,18.07
2019-03-16T22:50:19.564Z,16.63
2019-03-16T22:52:48.140Z,17.40
2019-03-16T22:55:16.668Z,12.47
2019-03-16T22:57:45.129Z,11.50
2019-03-16T23:00:20.033Z,13.55
2019-03-16T23:02:48.562Z,16.07
2019-03-16T23:05:17.095Z,12.85
2019-03-16T23:07:45.575Z,11.55
2019-03-16T23:10:14.181Z,10.40
2019-03-16T23:12:44.346Z,13.10
2019-03-16T23:15:14.964Z,9.08
2019-03-16T23:17:43.523Z,11.10
2019-03-16T23:20:12.160Z,14.87
2019-03-16T23:22:40.645Z,13.15
2019-03-16T23:25:10.734Z,12.93
2019-03-16T23:27:39.276Z,10.20
2019-03-16T23:30:09.396Z,14.73
2019-03-16T23:32:37.860Z,14.63
2019-03-16T23:35:08.244Z,9.70
2019-03-16T23:37:40.741Z,11.60
2019-03-16T23:40:12.970Z,16.64
2019-03-16T23:42:41.435Z,9.08
2019-03-16T23:45:12.276Z,14.23
2019-03-16T23:47:42.521Z,10.38
2019-03-16T23:50:13.154Z,10.82
2019-03-16T23:52:41.675Z,9.38
2019-03-16T23:55:11.284Z,14.23
2019-03-16T23:57:39.757Z,13.90
